Briefing drone pour Aurillac (LFLW)

Rechercher une autre localisation

Conditions de vol :


Nous sommes le : Mercredi 29 juin 2022
Il est 05:54 UTC (07:54 LT)

Lever de soleil : 03:40 UTC (05:40 LT)
Coucher de soleil : 20:06 UTC (22:06 LT)

Météo

L'essentiel des conditions de vol

VIGILANCE MÉTÉO FRANCE - Cantal (15)
Pas de vigilances particulieres
CARTE TEMSI
CARTES DES FRONTS
METAR de LFLW
LFLW 290530Z AUTO 00000KT CAVOK 11/11 Q1018 NOSIG

Date d'émission: 29/06/2022
Heure d'émission: 05:30 UTC
Vent: Calme
Visibilité horizontale: > 10 km
Plafond : Plafond et visibilité OK (CAVOK)
Température: 11 °C
Point de rosée: 11 °C
Humidité: 100%
Pression (QNH): 1018 hPa
Conditions: Pas de changement dans les 2 heures (NOSIG)
Prévision 24h pour Aurillac
Vent : 64° pour 1 KT (4 km/h)
Temperature Maxi: 13 °C
Temperature Min: 13 °C
Humidité : 83%
Condition : Peu nuageux



Warning: count(): Parameter must be an array or an object that implements Countable in /homepages/6/d509196549/htdocs/droneoxygene/briefing.php on line 743
WEBCAM POUR AURILLAC

Réglementation

Voler en sécurité

CARTES AERONAUTIQUE 1/500.000
CARTES VAC (LFLW)
SUP AIP




Chargement des AIP...
NOTAM (AURILLAC + Terrain à proximité / FIR )




Chargement des NOTAMS...
CONTACT PREFECTURE 15


Avertissement : Les données mises à disposition sont indicatives. Oxygène Drone ne pourra être tenu responsable de dégâts causés aux biens et aux personnes.